Miltonvale, Kansas
Current Conditions -  °F | °C
As of 11:55 PM on Wednesday 22 Oct 2014 (Local Time) from KCNK Reporting Station
Overcast Overcast  
Wind Chill: 61°   Ceiling: 4900
Heat Index: 61°   Visibility: 9mi
Dew Point: 60°   Wind: 3mph
Humidity: 97%   Direction: 90°E
Pressure: 30.06"   Gusts: NA
Location:  39.35°N, 97.45°W
Report Text: KCNK 230455Z AUTO 09003KT 9SM OVC049 16/16 A3006 RMK AO2 RAE36 SLP171 P0001 T01610156
Loading
Personal Weather Stations






























Interactive Weather Map
Tropical Storm Tracking
New forecast layout! Learn more

10-Day Weather Forecast

Advertisements
Track Severe Weather on mobile